createdAt,value
2023-03-19T00:00:39.122Z,7.78
2023-03-19T00:03:06.145Z,7.05
2023-03-19T00:05:33.222Z,6.80
2023-03-19T00:08:00.147Z,7.55
2023-03-19T00:10:26.924Z,7.07
2023-03-19T00:12:53.613Z,7.35
2023-03-19T00:15:20.306Z,7.30
2023-03-19T00:17:47.101Z,6.88
2023-03-19T00:20:15.052Z,5.95
2023-03-19T00:22:42.108Z,6.07
2023-03-19T00:25:09.940Z,6.30
2023-03-19T00:27:38.081Z,6.80
2023-03-19T00:30:09.001Z,6.60
2023-03-19T00:32:36.704Z,6.35
2023-03-19T00:35:06.252Z,4.93
2023-03-19T00:37:33.767Z,5.13
2023-03-19T00:40:00.513Z,6.05
2023-03-19T00:42:27.524Z,5.85
2023-03-19T00:44:54.252Z,5.30
2023-03-19T00:47:21.253Z,5.18
2023-03-19T00:49:48.269Z,6.32
2023-03-19T00:52:15.273Z,6.13
2023-03-19T00:54:42.195Z,5.15
2023-03-19T00:57:09.264Z,5.80
2023-03-19T00:59:36.070Z,6.65
2023-03-19T01:02:03.968Z,5.90
2023-03-19T01:04:30.806Z,7.00
2023-03-19T01:09:25.540Z,6.18
2023-03-19T01:11:52.485Z,5.57
2023-03-19T01:14:19.340Z,5.43
2023-03-19T01:16:46.321Z,6.45
2023-03-19T01:19:13.760Z,5.50
2023-03-19T01:21:41.097Z,6.03
2023-03-19T01:24:07.779Z,6.03
2023-03-19T01:26:34.474Z,5.28
2023-03-19T01:29:01.209Z,5.78
2023-03-19T01:31:28.206Z,5.10
2023-03-19T01:33:54.973Z,5.25
2023-03-19T01:36:22.328Z,4.38
2023-03-19T01:38:49.274Z,4.72
2023-03-19T01:41:16.105Z,4.55
2023-03-19T01:43:43.062Z,4.82
2023-03-19T01:46:32.520Z,4.93
2023-03-19T01:49:03.340Z,4.35
2023-03-19T01:51:34.778Z,4.75
2023-03-19T01:54:05.244Z,4.80
2023-03-19T01:56:37.986Z,5.13
2023-03-19T01:59:12.534Z,4.50
2023-03-19T02:01:50.126Z,4.90
2023-03-19T02:04:17.104Z,5.30
2023-03-19T02:06:44.899Z,4.70
2023-03-19T02:09:12.585Z,4.70
2023-03-19T02:11:39.411Z,4.25
2023-03-19T02:14:06.212Z,4.20
2023-03-19T02:16:33.163Z,4.47
2023-03-19T02:19:01.403Z,4.00
2023-03-19T02:21:28.910Z,4.13
2023-03-19T02:24:28.856Z,4.15
2023-03-19T02:26:57.353Z,4.15
2023-03-19T02:29:24.121Z,4.18
2023-03-19T02:31:51.014Z,4.55
2023-03-19T02:34:21.205Z,4.00
2023-03-19T02:36:54.439Z,4.22
2023-03-19T02:39:45.978Z,3.90
2023-03-19T02:42:14.594Z,3.33
2023-03-19T02:44:41.387Z,3.20
2023-03-19T02:47:08.306Z,3.72
2023-03-19T02:49:36.167Z,3.60
2023-03-19T02:52:02.980Z,4.25
2023-03-19T02:54:29.762Z,4.30
2023-03-19T02:56:56.837Z,4.57
2023-03-19T02:59:23.655Z,4.85
2023-03-19T03:01:50.971Z,4.40
2023-03-19T03:04:17.749Z,4.82
2023-03-19T03:06:44.986Z,5.50
2023-03-19T03:09:12.917Z,5.38
2023-03-19T03:11:41.670Z,5.68
2023-03-19T03:14:08.454Z,5.70
2023-03-19T03:16:35.371Z,4.47
2023-03-19T03:19:02.537Z,5.95
2023-03-19T03:21:29.628Z,6.00
2023-03-19T03:23:56.595Z,6.55
2023-03-19T03:26:23.374Z,5.78
2023-03-19T03:28:50.154Z,4.97
2023-03-19T03:31:17.043Z,5.25
2023-03-19T03:33:43.841Z,5.07
2023-03-19T03:36:11.151Z,4.97
2023-03-19T03:38:37.974Z,5.03
2023-03-19T03:41:05.016Z,4.20
2023-03-19T03:43:31.831Z,5.03
2023-03-19T03:45:58.561Z,5.60
2023-03-19T03:48:26.070Z,5.13
2023-03-19T03:50:52.760Z,4.68
2023-03-19T03:53:19.576Z,5.25
2023-03-19T03:55:46.665Z,4.55
2023-03-19T03:58:13.386Z,5.20
2023-03-19T04:00:40.723Z,5.07
2023-03-19T04:03:07.531Z,5.68
2023-03-19T04:05:34.300Z,5.05
2023-03-19T04:08:01.455Z,5.22
2023-03-19T04:10:28.186Z,5.55
2023-03-19T04:12:54.925Z,5.25
2023-03-19T04:15:21.735Z,5.20
2023-03-19T04:17:48.849Z,5.65
2023-03-19T04:20:18.285Z,5.93
2023-03-19T04:22:45.732Z,5.15
2023-03-19T04:25:12.428Z,5.47
2023-03-19T04:27:39.228Z,5.35
2023-03-19T04:30:06.447Z,5.68
2023-03-19T04:32:33.906Z,4.88
2023-03-19T04:35:00.833Z,5.20
2023-03-19T04:37:27.801Z,5.05
2023-03-19T04:39:54.534Z,4.70
2023-03-19T04:42:21.756Z,5.72
2023-03-19T04:44:48.696Z,4.65
2023-03-19T04:47:15.640Z,5.72
2023-03-19T04:49:42.464Z,4.80
2023-03-19T04:52:09.497Z,5.28
2023-03-19T04:54:36.319Z,5.07
2023-03-19T04:57:03.137Z,4.03
2023-03-19T04:59:29.952Z,4.80
2023-03-19T05:01:56.851Z,5.30
2023-03-19T05:04:24.107Z,4.88
2023-03-19T05:06:51.183Z,5.03
2023-03-19T05:09:18.086Z,5.28
2023-03-19T05:11:44.820Z,4.82
2023-03-19T05:14:11.606Z,4.80
2023-03-19T05:16:38.893Z,4.85
2023-03-19T05:19:05.628Z,4.43
2023-03-19T05:21:32.695Z,4.75
2023-03-19T05:23:59.638Z,5.10
2023-03-19T05:26:29.834Z,3.83
2023-03-19T05:28:56.727Z,5.10
2023-03-19T05:31:23.852Z,4.55
2023-03-19T05:33:50.626Z,4.53
2023-03-19T05:36:18.235Z,4.45
2023-03-19T05:38:44.936Z,3.95
2023-03-19T05:41:11.655Z,4.32
2023-03-19T05:43:38.334Z,4.30
2023-03-19T05:46:05.134Z,4.18
2023-03-19T05:48:32.047Z,3.92
2023-03-19T05:50:59.383Z,4.10
2023-03-19T05:53:26.220Z,4.75
2023-03-19T05:55:52.976Z,4.80
2023-03-19T05:58:19.714Z,5.00
2023-03-19T06:00:48.547Z,3.97
2023-03-19T06:03:15.607Z,4.88
2023-03-19T06:05:42.405Z,4.43
2023-03-19T06:08:09.245Z,4.93
2023-03-19T06:10:36.522Z,5.13
2023-03-19T06:13:04.965Z,4.50
2023-03-19T06:15:32.064Z,4.65
2023-03-19T06:17:59.238Z,4.70
2023-03-19T06:20:26.167Z,4.63
2023-03-19T06:22:53.079Z,4.70
2023-03-19T06:25:19.916Z,4.45
2023-03-19T06:27:46.629Z,4.13
2023-03-19T06:30:14.055Z,4.00
2023-03-19T06:32:41.788Z,4.80
2023-03-19T06:35:09.046Z,4.18
2023-03-19T06:37:36.502Z,4.50
2023-03-19T06:40:04.989Z,4.10
2023-03-19T06:42:32.081Z,3.78
2023-03-19T06:44:58.807Z,4.38
2023-03-19T06:47:26.413Z,4.25
2023-03-19T06:49:53.269Z,4.18
2023-03-19T06:52:20.042Z,3.83
2023-03-19T06:54:46.704Z,3.88
2023-03-19T06:57:13.438Z,3.38
2023-03-19T06:59:40.193Z,4.25
2023-03-19T07:02:09.044Z,4.10
2023-03-19T07:04:36.744Z,4.35
2023-03-19T07:07:05.786Z,4.25
2023-03-19T07:09:32.912Z,4.68
2023-03-19T07:11:59.703Z,3.90
2023-03-19T07:14:26.592Z,4.70
2023-03-19T07:16:53.481Z,4.53
2023-03-19T07:19:20.311Z,3.90
2023-03-19T07:21:47.360Z,4.13
2023-03-19T07:24:14.221Z,4.00
2023-03-19T07:26:42.333Z,4.28
2023-03-19T07:29:09.299Z,4.20
2023-03-19T07:31:36.104Z,3.60
2023-03-19T07:34:03.305Z,3.67
2023-03-19T07:36:30.083Z,4.20
2023-03-19T07:38:57.518Z,6.50
2023-03-19T07:41:24.709Z,3.85
2023-03-19T07:43:51.666Z,3.47
2023-03-19T07:46:18.847Z,4.18
2023-03-19T07:48:46.235Z,3.88
2023-03-19T07:51:13.156Z,3.33
2023-03-19T07:53:40.235Z,3.53
2023-03-19T07:56:07.462Z,3.20
2023-03-19T07:58:34.272Z,3.42
2023-03-19T08:01:01.165Z,3.03
2023-03-19T08:03:28.121Z,2.97
2023-03-19T08:05:55.229Z,3.05
2023-03-19T08:08:22.196Z,2.85
2023-03-19T08:10:50.835Z,2.88
2023-03-19T08:13:17.620Z,2.30
2023-03-19T08:15:44.405Z,2.85
2023-03-19T08:18:11.261Z,3.55
2023-03-19T08:20:38.218Z,3.88
2023-03-19T08:23:05.326Z,4.07
2023-03-19T08:25:32.778Z,3.97
2023-03-19T08:28:02.825Z,4.63
2023-03-19T08:30:29.827Z,4.25
2023-03-19T08:32:56.752Z,4.88
2023-03-19T08:35:24.169Z,5.00
2023-03-19T08:37:51.266Z,4.93
2023-03-19T08:40:18.014Z,5.57
2023-03-19T08:42:45.538Z,4.68
2023-03-19T08:45:14.745Z,4.22
2023-03-19T08:47:42.334Z,4.80
2023-03-19T08:50:10.042Z,4.40
2023-03-19T08:52:37.406Z,5.95
2023-03-19T08:55:05.447Z,5.18
2023-03-19T08:57:32.456Z,4.07
2023-03-19T08:59:59.387Z,3.80
2023-03-19T09:02:26.534Z,4.40
2023-03-19T09:04:53.784Z,3.35
2023-03-19T09:07:20.711Z,3.22
2023-03-19T09:09:47.523Z,3.00
2023-03-19T09:12:17.274Z,3.78
2023-03-19T09:14:44.100Z,4.25
2023-03-19T09:17:13.595Z,2.92
2023-03-19T09:19:42.034Z,3.22
2023-03-19T09:22:08.986Z,3.53
2023-03-19T09:24:38.207Z,3.67
2023-03-19T09:27:06.504Z,3.08
2023-03-19T09:29:33.457Z,2.97
2023-03-19T09:32:00.957Z,4.38
2023-03-19T09:34:28.231Z,5.35
2023-03-19T09:36:55.264Z,4.35
2023-03-19T09:39:22.413Z,5.00
2023-03-19T09:42:08.426Z,7.28
2023-03-19T09:44:44.366Z,5.65
2023-03-19T09:47:35.910Z,5.80
2023-03-19T09:50:16.023Z,5.70
2023-03-19T09:52:51.838Z,6.57
2023-03-19T09:55:25.409Z,5.25
2023-03-19T09:57:55.682Z,5.97
2023-03-19T10:00:28.931Z,5.97
2023-03-19T10:03:04.937Z,5.68
2023-03-19T10:06:02.042Z,5.97
2023-03-19T10:08:51.907Z,5.97
2023-03-19T10:11:34.620Z,4.82
2023-03-19T10:14:25.100Z,4.80
2023-03-19T10:16:54.961Z,4.38
2023-03-19T10:19:40.617Z,4.78
2023-03-19T10:22:15.196Z,4.88
2023-03-19T10:24:44.946Z,4.95
2023-03-19T10:27:19.691Z,5.18
2023-03-19T10:29:46.777Z,5.53
2023-03-19T10:32:38.175Z,4.70
2023-03-19T10:35:21.841Z,5.07
2023-03-19T10:37:52.131Z,6.47
2023-03-19T10:40:26.298Z,7.05
2023-03-19T10:43:03.105Z,6.30
2023-03-19T10:45:39.337Z,6.22
2023-03-19T10:48:12.250Z,5.15
2023-03-19T10:50:48.617Z,5.60
2023-03-19T10:53:15.483Z,6.20
2023-03-19T10:55:55.421Z,5.90
2023-03-19T10:58:30.984Z,5.63
2023-03-19T11:01:11.164Z,4.85
2023-03-19T11:03:57.580Z,4.63
2023-03-19T11:06:36.166Z,4.97
2023-03-19T11:09:15.554Z,4.78
2023-03-19T11:11:58.475Z,4.20
2023-03-19T11:14:38.481Z,4.45
2023-03-19T11:17:20.201Z,4.22
2023-03-19T11:19:56.356Z,4.25
2023-03-19T11:22:32.218Z,4.68
2023-03-19T11:25:26.408Z,4.50
2023-03-19T11:28:01.907Z,4.10
2023-03-19T11:30:40.914Z,4.55
2023-03-19T11:33:33.440Z,3.95
2023-03-19T11:36:16.967Z,3.67
2023-03-19T11:39:05.054Z,4.10
2023-03-19T11:41:54.147Z,3.80
2023-03-19T11:44:48.594Z,3.88
2023-03-19T11:47:34.522Z,4.00
2023-03-19T11:50:24.825Z,3.60
2023-03-19T11:53:28.588Z,3.33
2023-03-19T11:56:15.463Z,3.50
2023-03-19T11:58:54.699Z,3.30
2023-03-19T12:01:42.605Z,3.42
2023-03-19T12:05:03.901Z,4.72
2023-03-19T12:07:49.098Z,4.35
2023-03-19T12:10:27.958Z,3.60
2023-03-19T12:13:03.539Z,4.47
2023-03-19T12:16:02.705Z,3.92
2023-03-19T12:18:44.559Z,4.13
2023-03-19T12:21:37.787Z,4.57
2023-03-19T12:24:19.229Z,3.47
2023-03-19T12:26:54.876Z,3.13
2023-03-19T12:29:30.981Z,3.80
2023-03-19T12:32:16.085Z,3.50
2023-03-19T12:35:09.092Z,2.58
2023-03-19T12:38:03.330Z,3.25
2023-03-19T12:40:51.634Z,3.55
2023-03-19T12:43:37.277Z,3.28
2023-03-19T12:46:33.213Z,3.30
2023-03-19T12:49:14.788Z,3.17
2023-03-19T12:54:14.417Z,3.65
2023-03-19T12:56:48.458Z,3.50
2023-03-19T12:59:37.802Z,3.30
2023-03-19T13:02:23.686Z,3.20
2023-03-19T13:05:09.508Z,3.50
2023-03-19T13:08:02.132Z,3.38
2023-03-19T13:10:32.347Z,3.78
2023-03-19T13:13:01.865Z,3.25
2023-03-19T13:15:41.120Z,3.17
2023-03-19T13:18:39.017Z,3.65
2023-03-19T13:21:28.246Z,3.42
2023-03-19T13:24:09.893Z,3.05
2023-03-19T13:29:19.838Z,3.30
2023-03-19T13:31:47.940Z,3.25
2023-03-19T13:34:17.381Z,3.63
2023-03-19T13:36:59.652Z,3.50
2023-03-19T13:39:29.508Z,3.33
2023-03-19T13:42:08.208Z,3.33
2023-03-19T13:44:40.772Z,3.25
2023-03-19T13:47:26.702Z,3.20
2023-03-19T13:50:22.612Z,3.90
2023-03-19T13:53:13.043Z,3.30
2023-03-19T13:56:00.491Z,3.20
2023-03-19T13:58:47.004Z,3.70
2023-03-19T14:01:40.439Z,3.47
2023-03-19T14:04:18.552Z,3.03
2023-03-19T14:06:52.738Z,3.80
2023-03-19T14:09:32.150Z,3.28
2023-03-19T14:12:17.623Z,3.40
2023-03-19T14:15:17.922Z,3.15
2023-03-19T14:17:51.067Z,3.00
2023-03-19T14:20:28.073Z,2.78
2023-03-19T14:23:08.938Z,3.50
2023-03-19T14:26:07.066Z,3.00
2023-03-19T14:28:56.918Z,3.10
2023-03-19T14:31:30.076Z,3.30
2023-03-19T14:34:11.194Z,3.28
2023-03-19T14:37:03.468Z,4.65
2023-03-19T14:39:32.995Z,4.68
2023-03-19T14:42:14.143Z,3.72
2023-03-19T14:44:50.717Z,3.22
2023-03-19T14:47:43.836Z,3.55
2023-03-19T14:50:44.160Z,3.20
2023-03-19T14:53:19.475Z,3.65
2023-03-19T14:55:51.426Z,3.63
2023-03-19T14:58:20.769Z,3.53
2023-03-19T15:00:50.857Z,3.65
2023-03-19T15:03:37.359Z,3.53
2023-03-19T15:06:09.953Z,3.58
2023-03-19T15:08:40.366Z,4.45
2023-03-19T15:11:24.566Z,4.20
2023-03-19T15:14:08.172Z,3.83
2023-03-19T15:16:44.192Z,3.47
2023-03-19T15:19:12.766Z,3.70
2023-03-19T15:21:39.745Z,3.63
2023-03-19T15:24:14.597Z,3.90
2023-03-19T15:26:41.624Z,3.63
2023-03-19T15:29:12.285Z,4.75
2023-03-19T15:31:51.601Z,5.53
2023-03-19T15:34:28.334Z,4.68
2023-03-19T15:37:04.330Z,4.30
2023-03-19T15:39:35.584Z,4.90
2023-03-19T15:42:05.089Z,4.90
2023-03-19T15:44:37.149Z,4.82
2023-03-19T15:47:07.242Z,5.25
2023-03-19T15:49:44.223Z,5.47
2023-03-19T15:52:16.468Z,5.57
2023-03-19T15:54:43.733Z,5.22
2023-03-19T15:57:14.638Z,5.82
2023-03-19T15:59:42.011Z,5.72
2023-03-19T16:02:38.718Z,6.10
2023-03-19T16:05:21.490Z,5.82
2023-03-19T16:08:00.604Z,6.07
2023-03-19T16:10:38.098Z,5.00
2023-03-19T16:13:27.397Z,6.00
2023-03-19T16:16:08.107Z,6.93
2023-03-19T16:18:53.299Z,6.67
2023-03-19T16:21:36.459Z,5.97
2023-03-19T16:24:21.240Z,6.50
2023-03-19T16:26:48.685Z,5.90
2023-03-19T16:29:28.813Z,6.15
2023-03-19T16:32:01.897Z,5.95
2023-03-19T16:34:53.801Z,6.28
2023-03-19T16:37:34.672Z,6.53
2023-03-19T16:40:21.701Z,5.95
2023-03-19T16:42:54.150Z,5.60
2023-03-19T16:45:30.638Z,5.53
2023-03-19T16:47:59.578Z,5.93
2023-03-19T16:50:37.853Z,5.50
2023-03-19T16:53:32.141Z,5.53
2023-03-19T16:56:01.022Z,5.07
2023-03-19T16:58:42.960Z,5.32
2023-03-19T17:01:20.166Z,5.85
2023-03-19T17:03:47.776Z,6.45
2023-03-19T17:06:16.919Z,8.07
2023-03-19T17:08:44.011Z,6.85
2023-03-19T17:11:28.375Z,7.35
2023-03-19T17:13:57.830Z,6.13
2023-03-19T17:16:26.398Z,6.88
2023-03-19T17:18:53.789Z,6.53
2023-03-19T17:21:30.779Z,7.13
2023-03-19T17:23:57.839Z,7.38
2023-03-19T17:26:28.214Z,6.80
2023-03-19T17:28:56.481Z,7.30
2023-03-19T17:31:33.032Z,7.78
2023-03-19T17:34:11.259Z,10.65
2023-03-19T17:36:38.729Z,9.73
2023-03-19T17:39:07.177Z,7.93
2023-03-19T17:41:35.508Z,7.55
2023-03-19T17:44:05.862Z,7.78
2023-03-19T17:46:38.585Z,8.10
2023-03-19T17:49:05.860Z,7.18
2023-03-19T17:51:33.107Z,7.47
2023-03-19T17:53:59.778Z,7.10
2023-03-19T17:56:26.578Z,6.50
2023-03-19T17:58:53.997Z,7.20
2023-03-19T18:01:27.794Z,6.70
2023-03-19T18:03:56.290Z,7.07
2023-03-19T18:06:32.364Z,6.95
2023-03-19T18:08:59.082Z,7.22
2023-03-19T18:11:26.281Z,6.65
2023-03-19T18:13:53.145Z,6.68
2023-03-19T18:16:30.857Z,6.93
2023-03-19T18:19:03.532Z,6.85
2023-03-19T18:21:31.342Z,7.53
2023-03-19T18:23:58.319Z,6.32
2023-03-19T18:26:25.992Z,6.18
2023-03-19T18:28:52.670Z,6.22
2023-03-19T18:31:25.469Z,6.45
2023-03-19T18:34:00.741Z,6.10
2023-03-19T18:36:31.150Z,6.38
2023-03-19T18:38:58.585Z,6.07
2023-03-19T18:41:28.973Z,6.32
2023-03-19T18:43:56.003Z,5.95
2023-03-19T18:46:30.910Z,5.70
2023-03-19T18:49:04.991Z,5.85
2023-03-19T18:51:31.876Z,5.82
2023-03-19T18:53:58.786Z,5.53
2023-03-19T18:56:29.156Z,5.38
2023-03-19T18:58:58.060Z,5.65
2023-03-19T19:01:25.680Z,6.05
2023-03-19T19:03:52.886Z,5.20
2023-03-19T19:06:44.191Z,5.55
2023-03-19T19:09:13.727Z,6.13
2023-03-19T19:11:44.060Z,6.15
2023-03-19T19:14:21.790Z,6.57
2023-03-19T19:16:49.450Z,6.40
2023-03-19T19:19:23.222Z,6.63
2023-03-19T19:21:51.247Z,7.85
2023-03-19T19:24:18.488Z,8.00
2023-03-19T19:26:47.249Z,8.93
2023-03-19T19:29:22.841Z,11.00
2023-03-19T19:31:49.624Z,16.00
2023-03-19T19:34:16.892Z,15.98
2023-03-19T19:36:43.909Z,16.40
2023-03-19T19:39:10.869Z,18.77
2023-03-19T19:41:38.719Z,20.30
2023-03-19T19:44:05.899Z,24.65
2023-03-19T19:46:33.128Z,23.67
2023-03-19T19:48:59.870Z,27.70
2023-03-19T19:51:28.842Z,31.40
2023-03-19T19:53:55.917Z,32.50
2023-03-19T19:56:25.118Z,32.95
2023-03-19T19:58:54.131Z,34.35
2023-03-19T20:01:23.547Z,35.15
2023-03-19T20:03:50.796Z,35.60
2023-03-19T20:06:18.234Z,37.15
2023-03-19T20:08:46.270Z,37.78
2023-03-19T20:11:22.947Z,38.25
2023-03-19T20:13:54.193Z,35.92
2023-03-19T20:16:24.176Z,37.78
2023-03-19T20:18:53.914Z,35.47
2023-03-19T20:21:22.773Z,35.75
2023-03-19T20:23:53.249Z,37.38
2023-03-19T20:26:23.000Z,35.22
2023-03-19T20:28:51.182Z,37.22
2023-03-19T20:31:32.358Z,36.67
2023-03-19T20:33:59.359Z,36.92
2023-03-19T20:36:26.914Z,35.05
2023-03-19T20:38:54.515Z,35.25
2023-03-19T20:41:24.035Z,36.72
2023-03-19T20:43:52.157Z,37.42
2023-03-19T20:46:21.028Z,40.30
2023-03-19T20:48:48.990Z,39.60
2023-03-19T20:51:19.978Z,37.38
2023-03-19T20:53:48.854Z,38.28
2023-03-19T20:56:17.669Z,39.13
2023-03-19T20:58:45.613Z,40.00
2023-03-19T21:01:14.398Z,39.13
2023-03-19T21:03:41.867Z,41.10
2023-03-19T21:06:23.154Z,38.70
2023-03-19T21:08:53.689Z,37.20
2023-03-19T21:11:22.569Z,31.97
2023-03-19T21:13:52.705Z,35.95
2023-03-19T21:16:22.803Z,33.90
2023-03-19T21:18:50.566Z,36.42
2023-03-19T21:21:19.449Z,37.78
2023-03-19T21:23:56.996Z,38.60
2023-03-19T21:26:25.403Z,40.92
2023-03-19T21:28:55.752Z,37.05
2023-03-19T21:31:23.188Z,35.72
2023-03-19T21:33:55.857Z,38.53
2023-03-19T21:36:24.282Z,38.50
2023-03-19T21:38:52.631Z,38.70
2023-03-19T21:41:29.070Z,40.38
2023-03-19T21:44:22.713Z,40.50
2023-03-19T21:46:50.933Z,41.78
2023-03-19T21:49:18.022Z,40.42
2023-03-19T21:51:45.173Z,38.28
2023-03-19T21:54:12.356Z,39.95
2023-03-19T21:56:42.021Z,39.78
2023-03-19T21:59:33.869Z,38.03
2023-03-19T22:02:00.870Z,42.00
2023-03-19T22:04:27.952Z,37.75
2023-03-19T22:06:54.934Z,41.10
2023-03-19T22:09:21.860Z,41.05
2023-03-19T22:11:48.833Z,40.97
2023-03-19T22:14:20.110Z,39.72
2023-03-19T22:16:52.880Z,40.97
2023-03-19T22:19:20.958Z,40.28
2023-03-19T22:21:48.491Z,39.63
2023-03-19T22:24:16.143Z,40.83
2023-03-19T22:26:46.921Z,42.58
2023-03-19T22:29:21.186Z,43.22
2023-03-19T22:31:49.876Z,38.45
2023-03-19T22:34:19.013Z,41.85
2023-03-19T22:36:46.207Z,42.38
2023-03-19T22:39:13.812Z,40.17
2023-03-19T22:41:45.787Z,37.20
2023-03-19T22:44:31.465Z,36.53
2023-03-19T22:47:01.966Z,40.17
2023-03-19T22:49:30.085Z,39.43
2023-03-19T22:51:57.985Z,42.53
2023-03-19T22:54:25.822Z,38.35
2023-03-19T22:56:53.122Z,41.33
2023-03-19T22:59:20.984Z,35.15
2023-03-19T23:01:48.366Z,37.20
2023-03-19T23:04:22.212Z,39.67
2023-03-19T23:06:50.707Z,41.00
2023-03-19T23:09:26.900Z,43.70
2023-03-19T23:11:54.081Z,38.00
2023-03-19T23:14:29.501Z,42.75
2023-03-19T23:17:14.858Z,40.15
2023-03-19T23:19:41.856Z,41.13
2023-03-19T23:22:16.115Z,41.25
2023-03-19T23:24:44.904Z,40.58
2023-03-19T23:27:25.364Z,42.67
2023-03-19T23:29:53.132Z,41.28
2023-03-19T23:32:20.281Z,40.15
2023-03-19T23:34:58.041Z,37.60
2023-03-19T23:37:26.304Z,38.45
2023-03-19T23:39:53.816Z,41.15
2023-03-19T23:42:28.809Z,37.10
2023-03-19T23:44:58.865Z,38.50
2023-03-19T23:47:26.391Z,38.15
2023-03-19T23:49:53.102Z,34.85
2023-03-19T23:52:19.813Z,34.08
2023-03-19T23:54:46.685Z,38.33
2023-03-19T23:57:15.566Z,35.17
2023-03-19T23:59:44.396Z,35.63
